Vernon, Oklahoma
Current Conditions -  °F | °C
As of 7:53 AM on Monday 20 Oct 2014 (Local Time) from KMLC Reporting Station
Overcast Overcast  
Wind Chill: 13°   Ceiling: 9000
Heat Index: 13°   Visibility: 10mi
Dew Point: 10°   Wind: 5mph
Humidity: 80%   Direction: 190°S
Pressure: 30.08"   Gusts: NA
Location:  35.2158°N, 95.8817°W
Report Text: KMLC 201253Z AUTO 19004KT 10SM OVC090 13/10 A3008 RMK AO2 SLP182 T01330100
Loading
Personal Weather Stations






























Interactive Weather Map
Tropical Storm Tracking
New forecast layout! Learn more

10-Day Weather Forecast

Advertisements
Track Severe Weather on mobile